AEE3352 LGAV-LGSR
Flight info
| Callsign | AEE3352 |
|---|---|
| Flight time | 0h 26m |
| Altitude | 15000 |
| Route | KEA L607 NETIS M601 PEXAN |
| Aircraft | A20N/M-SDE2E3FGHIRWXY/LB1 |
Departure
| Time | 2026-04-21 13:53 |
|---|---|
| Airport | Athens Eleftherios Venizelos International Airport (LGAV) |
Arrival
| Time | 2026-04-21 14:20 |
|---|---|
| Airport | Santorini International Airport (LGSR) |
| Time | Latitude | Longitude | Altitude | Speed | Heading |
|---|---|---|---|---|---|
| 2026-04-21 13:30 | 37.93697 | 23.94924 | 284 ft | 0 kts | 301° |
| 2026-04-21 13:41 | 37.93693 | 23.94932 | 282 ft | 1 kts | 301° |
| 2026-04-21 13:41 | 37.93679 | 23.94960 | 287 ft | 4 kts | 301° |
| 2026-04-21 13:41 | 37.93661 | 23.94998 | 284 ft | 6 kts | 310° |
| 2026-04-21 13:41 | 37.93641 | 23.95010 | 284 ft | 3 kts | 25° |
| 2026-04-21 13:42 | 37.93638 | 23.95009 | 285 ft | 0 kts | 36° |
| 2026-04-21 13:45 | 37.93645 | 23.95015 | 288 ft | 3 kts | 36° |
| 2026-04-21 13:45 | 37.93673 | 23.95040 | 282 ft | 5 kts | 36° |
| 2026-04-21 13:45 | 37.93707 | 23.95079 | 284 ft | 7 kts | 55° |
| 2026-04-21 13:46 | 37.93699 | 23.95141 | 286 ft | 9 kts | 120° |
| 2026-04-21 13:46 | 37.93661 | 23.95207 | 283 ft | 10 kts | 127° |
| 2026-04-21 13:46 | 37.93654 | 23.95276 | 281 ft | 9 kts | 53° |
| 2026-04-21 13:46 | 37.93710 | 23.95336 | 282 ft | 13 kts | 37° |
| 2026-04-21 13:47 | 37.93793 | 23.95415 | 279 ft | 17 kts | 37° |
| 2026-04-21 13:47 | 37.93899 | 23.95515 | 278 ft | 21 kts | 37° |
| 2026-04-21 13:47 | 37.94008 | 23.95619 | 277 ft | 19 kts | 37° |
| 2026-04-21 13:47 | 37.94117 | 23.95725 | 277 ft | 22 kts | 38° |
| 2026-04-21 13:48 | 37.94244 | 23.95833 | 277 ft | 21 kts | 48° |
| 2026-04-21 13:48 | 37.94344 | 23.95939 | 276 ft | 14 kts | 35° |
| 2026-04-21 13:48 | 37.94434 | 23.96024 | 273 ft | 18 kts | 39° |
| 2026-04-21 13:48 | 37.94546 | 23.96132 | 271 ft | 22 kts | 37° |
| 2026-04-21 13:49 | 37.94585 | 23.96169 | 271 ft | 2 kts | 37° |
| 2026-04-21 13:49 | 37.94606 | 23.96189 | 271 ft | 6 kts | 37° |
| 2026-04-21 13:49 | 37.94650 | 23.96232 | 270 ft | 10 kts | 37° |
| 2026-04-21 13:49 | 37.94718 | 23.96298 | 269 ft | 14 kts | 37° |
| 2026-04-21 13:50 | 37.94809 | 23.96383 | 269 ft | 18 kts | 37° |
| 2026-04-21 13:50 | 37.94916 | 23.96484 | 267 ft | 18 kts | 37° |
| 2026-04-21 13:50 | 37.95023 | 23.96586 | 267 ft | 19 kts | 37° |
| 2026-04-21 13:50 | 37.95123 | 23.96680 | 265 ft | 18 kts | 37° |
| 2026-04-21 13:51 | 37.95202 | 23.96755 | 264 ft | 14 kts | 37° |
| 2026-04-21 13:51 | 37.95271 | 23.96821 | 264 ft | 11 kts | 38° |
| 2026-04-21 13:51 | 37.95298 | 23.96898 | 263 ft | 8 kts | 106° |
| 2026-04-21 13:51 | 37.95270 | 23.96953 | 263 ft | 8 kts | 123° |
| 2026-04-21 13:52 | 37.95240 | 23.97008 | 263 ft | 8 kts | 128° |
| 2026-04-21 13:52 | 37.95188 | 23.97015 | 264 ft | 8 kts | 210° |
| 2026-04-21 13:52 | 37.95176 | 23.97005 | 265 ft | 3 kts | 215° |
| 2026-04-21 13:52 | 37.94999 | 23.96847 | 267 ft | 65 kts | 215° |
| 2026-04-21 13:53 | 37.94472 | 23.96344 | 270 ft | 122 kts | 217° |
| 2026-04-21 13:53 | 37.93684 | 23.95595 | 418 ft | 151 kts | 218° |
| 2026-04-21 13:53 | 37.92852 | 23.94793 | 1039 ft | 151 kts | 212° |
| 2026-04-21 13:53 | 37.91949 | 23.94095 | 1706 ft | 150 kts | 209° |
| 2026-04-21 13:54 | 37.91037 | 23.93472 | 2310 ft | 154 kts | 208° |
| 2026-04-21 13:54 | 37.90014 | 23.92798 | 2634 ft | 177 kts | 209° |
| 2026-04-21 13:54 | 37.88853 | 23.92031 | 2980 ft | 201 kts | 209° |
| 2026-04-21 13:54 | 37.87529 | 23.91151 | 3396 ft | 225 kts | 210° |
| 2026-04-21 13:55 | 37.86100 | 23.90197 | 4070 ft | 240 kts | 211° |
| 2026-04-21 13:55 | 37.84599 | 23.89196 | 4993 ft | 248 kts | 209° |
| 2026-04-21 13:55 | 37.82848 | 23.88620 | 5632 ft | 275 kts | 182° |
| 2026-04-21 13:55 | 37.80942 | 23.89190 | 6486 ft | 290 kts | 155° |
| 2026-04-21 13:56 | 37.79288 | 23.90685 | 7449 ft | 296 kts | 140° |
| 2026-04-21 13:56 | 37.77786 | 23.92491 | 8395 ft | 301 kts | 137° |
| 2026-04-21 13:56 | 37.76259 | 23.94340 | 9356 ft | 305 kts | 139° |
| 2026-04-21 13:56 | 37.74673 | 23.96141 | 10199 ft | 310 kts | 141° |
| 2026-04-21 13:57 | 37.72970 | 23.97968 | 10619 ft | 332 kts | 142° |
| 2026-04-21 13:57 | 37.71122 | 23.99882 | 10938 ft | 355 kts | 142° |
| 2026-04-21 13:57 | 37.69198 | 24.01846 | 11615 ft | 363 kts | 143° |
| 2026-04-21 13:57 | 37.67251 | 24.03829 | 12437 ft | 367 kts | 143° |
| 2026-04-21 13:58 | 37.65237 | 24.05881 | 13265 ft | 372 kts | 143° |
| 2026-04-21 13:58 | 37.63211 | 24.07944 | 14020 ft | 377 kts | 143° |
| 2026-04-21 13:58 | 37.61155 | 24.10036 | 14620 ft | 382 kts | 143° |
| 2026-04-21 13:58 | 37.59077 | 24.12149 | 14859 ft | 384 kts | 143° |
| 2026-04-21 13:59 | 37.56995 | 24.14267 | 14935 ft | 385 kts | 143° |
| 2026-04-21 13:59 | 37.54908 | 24.16388 | 14937 ft | 385 kts | 143° |
| 2026-04-21 13:59 | 37.52823 | 24.18505 | 14940 ft | 384 kts | 143° |
| 2026-04-21 13:59 | 37.50738 | 24.20620 | 14940 ft | 384 kts | 143° |
| 2026-04-21 14:00 | 37.48674 | 24.22712 | 14939 ft | 384 kts | 143° |
| 2026-04-21 14:00 | 37.46594 | 24.24819 | 14940 ft | 384 kts | 143° |
| 2026-04-21 14:00 | 37.44508 | 24.26931 | 14946 ft | 384 kts | 143° |
| 2026-04-21 14:00 | 37.42423 | 24.29039 | 14945 ft | 384 kts | 143° |
| 2026-04-21 14:01 | 37.40345 | 24.31139 | 14947 ft | 384 kts | 143° |
| 2026-04-21 14:01 | 37.38264 | 24.33242 | 14943 ft | 384 kts | 143° |
| 2026-04-21 14:01 | 37.36184 | 24.35342 | 14946 ft | 384 kts | 143° |
| 2026-04-21 14:01 | 37.34102 | 24.37443 | 14943 ft | 384 kts | 143° |
| 2026-04-21 14:02 | 37.32716 | 24.38841 | 14950 ft | 384 kts | 143° |
| 2026-04-21 14:02 | 37.29954 | 24.41622 | 14949 ft | 384 kts | 143° |
| 2026-04-21 14:02 | 37.28550 | 24.43036 | 14949 ft | 384 kts | 143° |
| 2026-04-21 14:03 | 37.24378 | 24.47234 | 14949 ft | 384 kts | 143° |
| 2026-04-21 14:03 | 37.22291 | 24.49332 | 14950 ft | 384 kts | 143° |
| 2026-04-21 14:03 | 37.20233 | 24.51399 | 14955 ft | 384 kts | 143° |
| 2026-04-21 14:03 | 37.18143 | 24.53496 | 14955 ft | 384 kts | 143° |
| 2026-04-21 14:04 | 37.16059 | 24.55586 | 14946 ft | 384 kts | 143° |
| 2026-04-21 14:04 | 37.13970 | 24.57679 | 14954 ft | 384 kts | 143° |
| 2026-04-21 14:04 | 37.11880 | 24.59772 | 14955 ft | 384 kts | 143° |
| 2026-04-21 14:04 | 37.09794 | 24.61859 | 14960 ft | 384 kts | 143° |
| 2026-04-21 14:05 | 37.07701 | 24.63952 | 14957 ft | 384 kts | 143° |
| 2026-04-21 14:05 | 37.05610 | 24.66043 | 14960 ft | 384 kts | 143° |
| 2026-04-21 14:05 | 37.03519 | 24.68130 | 14960 ft | 384 kts | 143° |
| 2026-04-21 14:05 | 37.01425 | 24.70220 | 14959 ft | 384 kts | 143° |
| 2026-04-21 14:06 | 36.99334 | 24.72304 | 14773 ft | 382 kts | 143° |
| 2026-04-21 14:06 | 36.97265 | 24.74363 | 14307 ft | 377 kts | 143° |
| 2026-04-21 14:06 | 36.95223 | 24.76396 | 13637 ft | 374 kts | 143° |
| 2026-04-21 14:06 | 36.93226 | 24.78385 | 12887 ft | 369 kts | 143° |
| 2026-04-21 14:07 | 36.91160 | 24.80244 | 12153 ft | 363 kts | 150° |
| 2026-04-21 14:07 | 36.89019 | 24.81886 | 11412 ft | 358 kts | 150° |
| 2026-04-21 14:07 | 36.86911 | 24.83512 | 10684 ft | 354 kts | 150° |
| 2026-04-21 14:07 | 36.84831 | 24.85122 | 10178 ft | 344 kts | 150° |
| 2026-04-21 14:08 | 36.82851 | 24.86656 | 9986 ft | 325 kts | 150° |
| 2026-04-21 14:08 | 36.80986 | 24.88101 | 9781 ft | 307 kts | 150° |
| 2026-04-21 14:08 | 36.79189 | 24.89490 | 9291 ft | 301 kts | 150° |
| 2026-04-21 14:08 | 36.77418 | 24.90856 | 8719 ft | 297 kts | 150° |
| 2026-04-21 14:09 | 36.75668 | 24.92205 | 8158 ft | 294 kts | 150° |
| 2026-04-21 14:09 | 36.73933 | 24.93541 | 7626 ft | 291 kts | 150° |
| 2026-04-21 14:09 | 36.72245 | 24.94841 | 7098 ft | 288 kts | 150° |
| 2026-04-21 14:09 | 36.70733 | 24.96449 | 6549 ft | 287 kts | 127° |
| 2026-04-21 14:10 | 36.69937 | 24.98698 | 6122 ft | 284 kts | 100° |
| 2026-04-21 14:10 | 36.69656 | 25.01171 | 5938 ft | 289 kts | 96° |
| 2026-04-21 14:10 | 36.69446 | 25.03635 | 5879 ft | 282 kts | 96° |
| 2026-04-21 14:10 | 36.69236 | 25.06068 | 5877 ft | 284 kts | 97° |
| 2026-04-21 14:11 | 36.69005 | 25.08542 | 5884 ft | 288 kts | 97° |
| 2026-04-21 14:11 | 36.68760 | 25.11011 | 5873 ft | 285 kts | 97° |
| 2026-04-21 14:11 | 36.68510 | 25.13428 | 5874 ft | 285 kts | 98° |
| 2026-04-21 14:11 | 36.68252 | 25.15882 | 5878 ft | 287 kts | 98° |
| 2026-04-21 14:12 | 36.67957 | 25.18337 | 5874 ft | 286 kts | 103° |
| 2026-04-21 14:12 | 36.67450 | 25.20712 | 5629 ft | 282 kts | 106° |
| 2026-04-21 14:12 | 36.66936 | 25.23067 | 5360 ft | 279 kts | 106° |
| 2026-04-21 14:12 | 36.66431 | 25.25411 | 4952 ft | 279 kts | 106° |
| 2026-04-21 14:13 | 36.65929 | 25.27748 | 4568 ft | 278 kts | 106° |
| 2026-04-21 14:13 | 36.65427 | 25.30074 | 4178 ft | 277 kts | 106° |
| 2026-04-21 14:13 | 36.64933 | 25.32355 | 3831 ft | 275 kts | 106° |
| 2026-04-21 14:13 | 36.64417 | 25.34651 | 3445 ft | 273 kts | 112° |
| 2026-04-21 14:14 | 36.63391 | 25.36539 | 3303 ft | 257 kts | 142° |
| 2026-04-21 14:14 | 36.61878 | 25.37573 | 3197 ft | 241 kts | 162° |
| 2026-04-21 14:14 | 36.60347 | 25.38289 | 3101 ft | 229 kts | 162° |
| 2026-04-21 14:14 | 36.58897 | 25.38970 | 3002 ft | 216 kts | 161° |
| 2026-04-21 14:15 | 36.57539 | 25.39613 | 3001 ft | 199 kts | 162° |
| 2026-04-21 14:15 | 36.56330 | 25.40188 | 2979 ft | 177 kts | 162° |
| 2026-04-21 14:15 | 36.55258 | 25.40700 | 2994 ft | 153 kts | 163° |
| 2026-04-21 14:15 | 36.54307 | 25.41151 | 2967 ft | 149 kts | 163° |
| 2026-04-21 14:16 | 36.53326 | 25.41620 | 2800 ft | 148 kts | 163° |
| 2026-04-21 14:16 | 36.52380 | 25.42090 | 2599 ft | 146 kts | 163° |
| 2026-04-21 14:16 | 36.51440 | 25.42559 | 2419 ft | 144 kts | 161° |
| 2026-04-21 14:16 | 36.50522 | 25.43024 | 2180 ft | 142 kts | 162° |
| 2026-04-21 14:17 | 36.49596 | 25.43479 | 1895 ft | 146 kts | 162° |
| 2026-04-21 14:17 | 36.48646 | 25.43916 | 1694 ft | 144 kts | 166° |
| 2026-04-21 14:17 | 36.47695 | 25.44323 | 1528 ft | 144 kts | 166° |
| 2026-04-21 14:17 | 36.46748 | 25.44738 | 1356 ft | 143 kts | 165° |
| 2026-04-21 14:18 | 36.45832 | 25.45195 | 1267 ft | 141 kts | 164° |
| 2026-04-21 14:18 | 36.44915 | 25.45614 | 1194 ft | 139 kts | 168° |
| 2026-04-21 14:18 | 36.43995 | 25.46012 | 1029 ft | 144 kts | 163° |
| 2026-04-21 14:18 | 36.43078 | 25.46450 | 725 ft | 138 kts | 166° |
| 2026-04-21 14:19 | 36.42159 | 25.46871 | 473 ft | 140 kts | 165° |
| 2026-04-21 14:19 | 36.41233 | 25.47307 | 221 ft | 145 kts | 165° |
| 2026-04-21 14:19 | 36.40298 | 25.47740 | 108 ft | 136 kts | 165° |
| 2026-04-21 14:19 | 36.39585 | 25.48070 | 71 ft | 80 kts | 160° |
| 2026-04-21 14:20 | 36.39251 | 25.48229 | 62 ft | 22 kts | 158° |
| 2026-04-21 14:20 | 36.39105 | 25.48299 | 57 ft | 21 kts | 159° |
| 2026-04-21 14:20 | 36.39021 | 25.48276 | 54 ft | 0 kts | 240° |
| 2026-04-21 14:20 | 36.39015 | 25.48262 | 55 ft | 4 kts | 240° |
| 2026-04-21 14:21 | 36.39002 | 25.48222 | 53 ft | 6 kts | 256° |
| 2026-04-21 14:21 | 36.39006 | 25.48172 | 58 ft | 3 kts | 317° |
| 2026-04-21 14:21 | 36.39032 | 25.48157 | 59 ft | 4 kts | 336° |
| 2026-04-21 14:21 | 36.39063 | 25.48143 | 53 ft | 5 kts | 342° |
| 2026-04-21 14:22 | 36.39101 | 25.48130 | 55 ft | 6 kts | 344° |
| 2026-04-21 14:22 | 36.39142 | 25.48114 | 60 ft | 7 kts | 341° |
| 2026-04-21 14:22 | 36.39187 | 25.48093 | 62 ft | 8 kts | 339° |
| 2026-04-21 14:22 | 36.39249 | 25.48062 | 61 ft | 11 kts | 338° |
| 2026-04-21 14:23 | 36.39325 | 25.48025 | 68 ft | 12 kts | 339° |
| 2026-04-21 14:23 | 36.39404 | 25.47988 | 63 ft | 12 kts | 339° |
| 2026-04-21 14:23 | 36.39483 | 25.47951 | 73 ft | 12 kts | 339° |
| 2026-04-21 14:23 | 36.39561 | 25.47914 | 76 ft | 12 kts | 339° |
| 2026-04-21 14:24 | 36.39639 | 25.47878 | 83 ft | 12 kts | 340° |
| 2026-04-21 14:24 | 36.39715 | 25.47843 | 85 ft | 12 kts | 337° |
| 2026-04-21 14:24 | 36.39791 | 25.47805 | 91 ft | 11 kts | 340° |
| 2026-04-21 14:24 | 36.39866 | 25.47772 | 93 ft | 11 kts | 340° |
| 2026-04-21 14:25 | 36.39940 | 25.47738 | 95 ft | 12 kts | 337° |
| 2026-04-21 14:25 | 36.40013 | 25.47700 | 99 ft | 10 kts | 339° |
| 2026-04-21 14:25 | 36.40081 | 25.47669 | 101 ft | 10 kts | 340° |
| 2026-04-21 14:25 | 36.40149 | 25.47639 | 102 ft | 11 kts | 340° |
| 2026-04-21 14:26 | 36.40219 | 25.47608 | 104 ft | 10 kts | 340° |
| 2026-04-21 14:26 | 36.40263 | 25.47586 | 106 ft | 5 kts | 328° |
| 2026-04-21 14:26 | 36.40272 | 25.47545 | 106 ft | 4 kts | 261° |
| 2026-04-21 14:26 | 36.40267 | 25.47504 | 107 ft | 6 kts | 261° |
| 2026-04-21 14:27 | 36.40258 | 25.47445 | 107 ft | 8 kts | 258° |
| 2026-04-21 14:27 | 36.40254 | 25.47417 | 107 ft | 0 kts | 258° |